TYA0325 URWW-URWA
Flight info
| Callsign | TYA0325 |
|---|---|
| Flight time | 0h 39m |
| Altitude | 29000 |
| Route | NOKLI2E NOKLI DCT OMIRA OMIRA5K |
| Aircraft | B733/M-SDE2E3FHIRW/S |
Departure
| Time | 2026-04-28 18:35 |
|---|---|
| Airport | Volgograd International Airport (URWW) |
Arrival
| Time | 2026-04-28 19:14 |
|---|---|
| Airport | Astrakhan Narimanovo Boris M. Kustodiev International Airport (URWA) |
| Time | Latitude | Longitude | Altitude | Speed | Heading |
|---|---|---|---|---|---|
| 2026-04-28 18:13 | 48.78822 | 44.34616 | 457 ft | 0 kts | 338° |
| 2026-04-28 18:27 | 48.78820 | 44.34618 | 457 ft | 2 kts | 342° |
| 2026-04-28 18:28 | 48.78805 | 44.34622 | 457 ft | 2 kts | 355° |
| 2026-04-28 18:28 | 48.78790 | 44.34621 | 457 ft | 2 kts | 12° |
| 2026-04-28 18:28 | 48.78776 | 44.34614 | 457 ft | 2 kts | 27° |
| 2026-04-28 18:28 | 48.78764 | 44.34602 | 456 ft | 2 kts | 41° |
| 2026-04-28 18:29 | 48.78754 | 44.34585 | 456 ft | 2 kts | 57° |
| 2026-04-28 18:29 | 48.78747 | 44.34565 | 455 ft | 1 kts | 71° |
| 2026-04-28 18:29 | 48.78746 | 44.34563 | 455 ft | 0 kts | 71° |
| 2026-04-28 18:31 | 48.78747 | 44.34565 | 455 ft | 1 kts | 69° |
| 2026-04-28 18:31 | 48.78759 | 44.34609 | 456 ft | 8 kts | 68° |
| 2026-04-28 18:31 | 48.78786 | 44.34718 | 459 ft | 12 kts | 69° |
| 2026-04-28 18:32 | 48.78814 | 44.34828 | 462 ft | 10 kts | 69° |
| 2026-04-28 18:32 | 48.78839 | 44.34928 | 466 ft | 9 kts | 69° |
| 2026-04-28 18:32 | 48.78859 | 44.35007 | 468 ft | 6 kts | 68° |
| 2026-04-28 18:32 | 48.78872 | 44.35071 | 470 ft | 7 kts | 90° |
| 2026-04-28 18:33 | 48.78817 | 44.35145 | 469 ft | 14 kts | 161° |
| 2026-04-28 18:33 | 48.78716 | 44.35196 | 469 ft | 16 kts | 162° |
| 2026-04-28 18:33 | 48.78607 | 44.35248 | 469 ft | 16 kts | 169° |
| 2026-04-28 18:33 | 48.78550 | 44.35204 | 467 ft | 0 kts | 239° |
| 2026-04-28 18:34 | 48.78550 | 44.35200 | 467 ft | 4 kts | 239° |
| 2026-04-28 18:34 | 48.78419 | 44.34802 | 461 ft | 82 kts | 244° |
| 2026-04-28 18:34 | 48.78064 | 44.33682 | 438 ft | 148 kts | 244° |
| 2026-04-28 18:35 | 48.77568 | 44.32089 | 691 ft | 175 kts | 242° |
| 2026-04-28 18:35 | 48.77062 | 44.30528 | 1481 ft | 167 kts | 241° |
| 2026-04-28 18:35 | 48.76510 | 44.28850 | 1655 ft | 191 kts | 242° |
| 2026-04-28 18:35 | 48.75902 | 44.26931 | 1802 ft | 212 kts | 243° |
| 2026-04-28 18:36 | 48.75247 | 44.24865 | 2220 ft | 228 kts | 243° |
| 2026-04-28 18:36 | 48.74428 | 44.22687 | 2719 ft | 246 kts | 227° |
| 2026-04-28 18:36 | 48.73014 | 44.21250 | 2887 ft | 248 kts | 198° |
| 2026-04-28 18:36 | 48.71309 | 44.21008 | 3045 ft | 256 kts | 172° |
| 2026-04-28 18:37 | 48.69672 | 44.22145 | 2955 ft | 262 kts | 141° |
| 2026-04-28 18:37 | 48.68631 | 44.24402 | 2897 ft | 268 kts | 114° |
| 2026-04-28 18:37 | 48.67940 | 44.27025 | 2881 ft | 270 kts | 114° |
| 2026-04-28 18:37 | 48.67251 | 44.29655 | 2891 ft | 269 kts | 114° |
| 2026-04-28 18:38 | 48.66562 | 44.32317 | 3071 ft | 282 kts | 113° |
| 2026-04-28 18:38 | 48.65759 | 44.34997 | 4148 ft | 278 kts | 128° |
| 2026-04-28 18:38 | 48.64408 | 44.36912 | 5184 ft | 272 kts | 146° |
| 2026-04-28 18:38 | 48.62903 | 44.38673 | 6116 ft | 276 kts | 145° |
| 2026-04-28 18:39 | 48.61410 | 44.40456 | 7015 ft | 280 kts | 144° |
| 2026-04-28 18:39 | 48.59886 | 44.42291 | 7888 ft | 284 kts | 144° |
| 2026-04-28 18:39 | 48.58345 | 44.44172 | 8741 ft | 288 kts | 144° |
| 2026-04-28 18:39 | 48.56792 | 44.46067 | 9586 ft | 291 kts | 144° |
| 2026-04-28 18:40 | 48.55216 | 44.47988 | 10268 ft | 300 kts | 144° |
| 2026-04-28 18:40 | 48.53509 | 44.50062 | 10418 ft | 329 kts | 144° |
| 2026-04-28 18:40 | 48.51712 | 44.52252 | 10977 ft | 341 kts | 144° |
| 2026-04-28 18:40 | 48.49858 | 44.54509 | 11729 ft | 347 kts | 144° |
| 2026-04-28 18:41 | 48.47974 | 44.56795 | 12480 ft | 351 kts | 144° |
| 2026-04-28 18:41 | 48.46075 | 44.59104 | 13211 ft | 356 kts | 144° |
| 2026-04-28 18:41 | 48.44134 | 44.61461 | 13925 ft | 361 kts | 145° |
| 2026-04-28 18:41 | 48.42165 | 44.63851 | 14624 ft | 365 kts | 145° |
| 2026-04-28 18:42 | 48.40189 | 44.66250 | 15287 ft | 370 kts | 146° |
| 2026-04-28 18:42 | 48.38175 | 44.68695 | 15955 ft | 374 kts | 147° |
| 2026-04-28 18:42 | 48.36146 | 44.71152 | 16610 ft | 377 kts | 147° |
| 2026-04-28 18:42 | 48.34103 | 44.73619 | 17255 ft | 381 kts | 147° |
| 2026-04-28 18:43 | 48.32035 | 44.76113 | 17882 ft | 384 kts | 147° |
| 2026-04-28 18:43 | 48.29956 | 44.78616 | 18491 ft | 388 kts | 147° |
| 2026-04-28 18:43 | 48.27843 | 44.81159 | 19091 ft | 391 kts | 147° |
| 2026-04-28 18:43 | 48.25712 | 44.83720 | 19678 ft | 394 kts | 147° |
| 2026-04-28 18:44 | 48.23580 | 44.86279 | 20243 ft | 398 kts | 148° |
| 2026-04-28 18:44 | 48.19245 | 44.91473 | 21338 ft | 404 kts | 148° |
| 2026-04-28 18:44 | 48.17051 | 44.94098 | 21855 ft | 407 kts | 148° |
| 2026-04-28 18:45 | 48.14816 | 44.96769 | 22366 ft | 410 kts | 148° |
| 2026-04-28 18:45 | 48.12591 | 44.99424 | 22860 ft | 413 kts | 148° |
| 2026-04-28 18:45 | 48.10348 | 45.02099 | 23341 ft | 416 kts | 148° |
| 2026-04-28 18:45 | 48.08093 | 45.04778 | 23809 ft | 419 kts | 148° |
| 2026-04-28 18:46 | 48.05779 | 45.07505 | 24276 ft | 422 kts | 148° |
| 2026-04-28 18:46 | 48.03502 | 45.10189 | 24727 ft | 425 kts | 148° |
| 2026-04-28 18:46 | 48.01242 | 45.13172 | 25186 ft | 434 kts | 141° |
| 2026-04-28 18:46 | 47.99168 | 45.16375 | 25635 ft | 438 kts | 140° |
| 2026-04-28 18:47 | 47.97060 | 45.19649 | 26079 ft | 441 kts | 140° |
| 2026-04-28 18:47 | 47.94921 | 45.22935 | 26524 ft | 444 kts | 141° |
| 2026-04-28 18:47 | 47.92772 | 45.26218 | 26957 ft | 446 kts | 141° |
| 2026-04-28 18:47 | 47.91307 | 45.28452 | 27258 ft | 447 kts | 141° |
| 2026-04-28 18:48 | 47.89878 | 45.30628 | 27547 ft | 449 kts | 141° |
| 2026-04-28 18:49 | 47.79802 | 45.45884 | 28419 ft | 434 kts | 142° |
| 2026-04-28 18:49 | 47.79094 | 45.46954 | 28426 ft | 433 kts | 142° |
| 2026-04-28 18:49 | 47.73484 | 45.55416 | 28207 ft | 430 kts | 141° |
| 2026-04-28 18:50 | 47.69286 | 45.61729 | 28127 ft | 433 kts | 141° |
| 2026-04-28 18:50 | 47.65041 | 45.68109 | 28134 ft | 434 kts | 141° |
| 2026-04-28 18:51 | 47.60794 | 45.74487 | 28146 ft | 434 kts | 142° |
| 2026-04-28 18:51 | 47.56532 | 45.80854 | 28182 ft | 434 kts | 142° |
| 2026-04-28 18:52 | 47.48411 | 45.92941 | 28173 ft | 433 kts | 142° |
| 2026-04-28 18:53 | 47.44151 | 45.99258 | 28175 ft | 434 kts | 142° |
| 2026-04-28 18:53 | 47.39916 | 46.05521 | 28178 ft | 434 kts | 142° |
| 2026-04-28 18:54 | 47.35652 | 46.11817 | 28179 ft | 433 kts | 142° |
| 2026-04-28 18:54 | 47.31405 | 46.18069 | 28176 ft | 433 kts | 142° |
| 2026-04-28 18:55 | 47.27149 | 46.24321 | 28179 ft | 432 kts | 142° |
| 2026-04-28 18:55 | 47.22911 | 46.30530 | 27812 ft | 430 kts | 142° |
| 2026-04-28 18:56 | 47.20790 | 46.33630 | 27095 ft | 433 kts | 142° |
| 2026-04-28 18:56 | 47.18656 | 46.36744 | 26362 ft | 434 kts | 142° |
| 2026-04-28 18:56 | 47.16534 | 46.39840 | 25643 ft | 430 kts | 142° |
| 2026-04-28 18:56 | 47.14446 | 46.42889 | 25087 ft | 421 kts | 142° |
| 2026-04-28 18:57 | 47.12399 | 46.45874 | 24581 ft | 411 kts | 142° |
| 2026-04-28 18:57 | 47.10412 | 46.48764 | 24057 ft | 403 kts | 142° |
| 2026-04-28 18:57 | 47.08387 | 46.51698 | 23519 ft | 413 kts | 142° |
| 2026-04-28 18:57 | 47.06361 | 46.54628 | 22950 ft | 415 kts | 141° |
| 2026-04-28 18:58 | 47.04311 | 46.57604 | 22356 ft | 409 kts | 141° |
| 2026-04-28 18:58 | 47.02336 | 46.60465 | 21792 ft | 402 kts | 141° |
| 2026-04-28 18:58 | 47.00350 | 46.63339 | 21241 ft | 396 kts | 141° |
| 2026-04-28 18:58 | 46.98422 | 46.66126 | 20701 ft | 390 kts | 142° |
| 2026-04-28 18:59 | 46.96511 | 46.68896 | 20167 ft | 383 kts | 142° |
| 2026-04-28 18:59 | 46.94631 | 46.71614 | 19646 ft | 378 kts | 142° |
| 2026-04-28 18:59 | 46.92720 | 46.74361 | 19129 ft | 389 kts | 142° |
| 2026-04-28 18:59 | 46.90812 | 46.77101 | 18604 ft | 386 kts | 142° |
| 2026-04-28 19:00 | 46.88911 | 46.79835 | 18056 ft | 380 kts | 142° |
| 2026-04-28 19:00 | 46.87043 | 46.82504 | 17533 ft | 374 kts | 142° |
| 2026-04-28 19:00 | 46.85199 | 46.85142 | 17030 ft | 368 kts | 142° |
| 2026-04-28 19:00 | 46.83391 | 46.87729 | 16531 ft | 362 kts | 142° |
| 2026-04-28 19:01 | 46.81608 | 46.90276 | 16046 ft | 366 kts | 141° |
| 2026-04-28 19:01 | 46.79762 | 46.92908 | 15542 ft | 370 kts | 141° |
| 2026-04-28 19:01 | 46.77952 | 46.95494 | 15034 ft | 365 kts | 141° |
| 2026-04-28 19:01 | 46.76154 | 46.98062 | 14527 ft | 359 kts | 141° |
| 2026-04-28 19:02 | 46.74377 | 47.00597 | 14033 ft | 354 kts | 141° |
| 2026-04-28 19:02 | 46.72651 | 47.03052 | 13556 ft | 349 kts | 141° |
| 2026-04-28 19:02 | 46.70908 | 47.05529 | 13082 ft | 352 kts | 141° |
| 2026-04-28 19:02 | 46.69153 | 47.08060 | 12604 ft | 357 kts | 138° |
| 2026-04-28 19:03 | 46.67508 | 47.10689 | 12099 ft | 349 kts | 136° |
| 2026-04-28 19:03 | 46.65934 | 47.13283 | 11621 ft | 339 kts | 136° |
| 2026-04-28 19:03 | 46.64404 | 47.15824 | 11153 ft | 330 kts | 136° |
| 2026-04-28 19:03 | 46.62924 | 47.18295 | 10711 ft | 322 kts | 135° |
| 2026-04-28 19:04 | 46.61475 | 47.20717 | 10274 ft | 314 kts | 135° |
| 2026-04-28 19:04 | 46.60074 | 47.23062 | 10032 ft | 302 kts | 135° |
| 2026-04-28 19:04 | 46.58730 | 47.25318 | 10023 ft | 286 kts | 135° |
| 2026-04-28 19:04 | 46.57467 | 47.27438 | 10025 ft | 270 kts | 134° |
| 2026-04-28 19:05 | 46.56221 | 47.29519 | 9835 ft | 283 kts | 134° |
| 2026-04-28 19:05 | 46.54919 | 47.31688 | 9443 ft | 290 kts | 134° |
| 2026-04-28 19:05 | 46.53590 | 47.33906 | 8991 ft | 291 kts | 134° |
| 2026-04-28 19:05 | 46.52267 | 47.36110 | 8563 ft | 290 kts | 133° |
| 2026-04-28 19:06 | 46.50954 | 47.38298 | 8153 ft | 285 kts | 133° |
| 2026-04-28 19:06 | 46.49668 | 47.40443 | 7783 ft | 279 kts | 133° |
| 2026-04-28 19:06 | 46.48400 | 47.42555 | 7425 ft | 274 kts | 133° |
| 2026-04-28 19:06 | 46.47154 | 47.44627 | 7080 ft | 273 kts | 133° |
| 2026-04-28 19:07 | 46.45921 | 47.46677 | 6720 ft | 272 kts | 133° |
| 2026-04-28 19:07 | 46.44661 | 47.48767 | 6167 ft | 279 kts | 133° |
| 2026-04-28 19:07 | 46.43388 | 47.50876 | 5678 ft | 279 kts | 132° |
| 2026-04-28 19:07 | 46.42133 | 47.52958 | 5311 ft | 273 kts | 132° |
| 2026-04-28 19:08 | 46.40900 | 47.55001 | 4982 ft | 267 kts | 131° |
| 2026-04-28 19:08 | 46.39686 | 47.57013 | 4648 ft | 261 kts | 131° |
| 2026-04-28 19:08 | 46.38506 | 47.58967 | 4306 ft | 257 kts | 131° |
| 2026-04-28 19:08 | 46.37344 | 47.60889 | 3965 ft | 253 kts | 131° |
| 2026-04-28 19:09 | 46.36198 | 47.62781 | 3628 ft | 250 kts | 131° |
| 2026-04-28 19:09 | 46.35058 | 47.64664 | 3295 ft | 247 kts | 131° |
| 2026-04-28 19:09 | 46.33963 | 47.66476 | 2967 ft | 244 kts | 131° |
| 2026-04-28 19:09 | 46.32843 | 47.68339 | 2646 ft | 241 kts | 131° |
| 2026-04-28 19:10 | 46.31726 | 47.70185 | 2327 ft | 249 kts | 131° |
| 2026-04-28 19:10 | 46.30767 | 47.72227 | 2042 ft | 247 kts | 106° |
| 2026-04-28 19:10 | 46.30515 | 47.74649 | 1977 ft | 234 kts | 96° |
| 2026-04-28 19:10 | 46.30330 | 47.76876 | 2004 ft | 216 kts | 96° |
| 2026-04-28 19:11 | 46.30163 | 47.78896 | 1999 ft | 186 kts | 95° |
| 2026-04-28 19:11 | 46.30026 | 47.80662 | 2006 ft | 176 kts | 95° |
| 2026-04-28 19:11 | 46.29898 | 47.82413 | 2021 ft | 174 kts | 91° |
| 2026-04-28 19:11 | 46.29891 | 47.84170 | 2008 ft | 176 kts | 94° |
| 2026-04-28 19:12 | 46.29705 | 47.85841 | 2043 ft | 153 kts | 106° |
| 2026-04-28 19:12 | 46.29328 | 47.87142 | 2002 ft | 145 kts | 108° |
| 2026-04-28 19:12 | 46.29176 | 47.88584 | 1579 ft | 146 kts | 89° |
| 2026-04-28 19:12 | 46.29195 | 47.90035 | 1122 ft | 138 kts | 86° |
| 2026-04-28 19:13 | 46.29165 | 47.91413 | 1061 ft | 140 kts | 92° |
| 2026-04-28 19:13 | 46.29075 | 47.92805 | 804 ft | 138 kts | 96° |
| 2026-04-28 19:13 | 46.28929 | 47.94175 | 673 ft | 139 kts | 95° |
| 2026-04-28 19:13 | 46.28770 | 47.95663 | 506 ft | 157 kts | 96° |
| 2026-04-28 19:14 | 46.28598 | 47.97194 | 243 ft | 147 kts | 95° |
| 2026-04-28 19:14 | 46.28506 | 47.98548 | 9 ft | 125 kts | 94° |
| 2026-04-28 19:14 | 46.28405 | 47.99659 | -53 ft | 82 kts | 97° |
| 2026-04-28 19:14 | 46.28368 | 48.00149 | -54 ft | 19 kts | 94° |
| 2026-04-28 19:15 | 46.28350 | 48.00367 | -53 ft | 25 kts | 97° |
| 2026-04-28 19:15 | 46.28320 | 48.00697 | -53 ft | 38 kts | 97° |
| 2026-04-28 19:15 | 46.28287 | 48.01088 | -54 ft | 41 kts | 96° |
| 2026-04-28 19:15 | 46.28266 | 48.01368 | -54 ft | 42 kts | 97° |
| 2026-04-28 19:16 | 46.28249 | 48.01572 | -54 ft | 0 kts | 96° |
| 2026-04-28 19:16 | 46.28246 | 48.01602 | -54 ft | 7 kts | 98° |
| 2026-04-28 19:16 | 46.28232 | 48.01750 | -54 ft | 23 kts | 98° |
| 2026-04-28 19:16 | 46.28208 | 48.02032 | -54 ft | 21 kts | 97° |
| 2026-04-28 19:17 | 46.28247 | 48.02224 | -54 ft | 22 kts | 24° |
| 2026-04-28 19:17 | 46.28359 | 48.02234 | -54 ft | 17 kts | 335° |
| 2026-04-28 19:17 | 46.28410 | 48.02039 | -54 ft | 24 kts | 276° |
| 2026-04-28 19:17 | 46.28432 | 48.01765 | -53 ft | 31 kts | 277° |